createdAt,value
2018-07-27T00:00:34.334Z,123.7
2018-07-27T00:01:35.874Z,123.7
2018-07-27T00:02:37.417Z,124.1
2018-07-27T00:03:38.806Z,123.7
2018-07-27T00:04:40.346Z,123.2
2018-07-27T00:05:41.708Z,124.6
2018-07-27T00:06:43.251Z,124.6
2018-07-27T00:07:44.487Z,124.1
2018-07-27T00:08:46.084Z,124.6
2018-07-27T00:09:47.293Z,124.6
2018-07-27T00:10:48.500Z,123.7
2018-07-27T00:11:50.035Z,123.7
2018-07-27T00:12:51.248Z,124.6
2018-07-27T00:13:52.641Z,124.6
2018-07-27T00:14:54.182Z,124.1
2018-07-27T00:15:55.724Z,124.6
2018-07-27T00:16:57.276Z,124.6
2018-07-27T00:17:58.827Z,124.6
2018-07-27T00:19:00.194Z,124.6
2018-07-27T00:20:01.744Z,123.7
2018-07-27T00:21:03.136Z,124.1
2018-07-27T00:22:04.521Z,124.6
2018-07-27T00:23:06.074Z,124.1
2018-07-27T00:24:07.639Z,124.6
2018-07-27T00:25:09.180Z,124.1
2018-07-27T00:26:10.565Z,124.1
2018-07-27T00:27:11.779Z,124.1
2018-07-27T00:28:13.013Z,124.1
2018-07-27T00:29:14.074Z,124.1
2018-07-27T00:30:15.304Z,124.1
2018-07-27T00:31:16.706Z,124.6
2018-07-27T00:32:18.096Z,125.1
2018-07-27T00:33:19.488Z,124.6
2018-07-27T00:34:20.867Z,124.6
2018-07-27T00:35:22.076Z,125.1
2018-07-27T00:36:23.285Z,124.6
2018-07-27T00:37:24.834Z,124.1
2018-07-27T00:38:26.381Z,125.6
2018-07-27T00:39:27.761Z,125.6
2018-07-27T00:40:29.289Z,124.6
2018-07-27T00:41:30.493Z,125.1
2018-07-27T00:42:31.864Z,125.1
2018-07-27T00:43:33.258Z,125.1
2018-07-27T00:44:34.305Z,124.6
2018-07-27T00:45:35.844Z,125.1
2018-07-27T00:46:36.879Z,124.1
2018-07-27T00:47:38.275Z,124.6
2018-07-27T00:48:39.815Z,124.6
2018-07-27T00:49:41.037Z,125.1
2018-07-27T00:50:42.414Z,125.1
2018-07-27T00:51:43.818Z,125.1
2018-07-27T00:52:45.194Z,125.1
2018-07-27T00:53:46.722Z,124.6
2018-07-27T00:54:47.951Z,124.6
2018-07-27T00:55:49.331Z,125.6
2018-07-27T00:56:50.696Z,125.6
2018-07-27T00:57:52.237Z,126.1
2018-07-27T00:58:53.789Z,125.6
2018-07-27T00:59:55.353Z,125.6
2018-07-27T01:00:56.908Z,126.1
2018-07-27T01:01:58.454Z,126.1
2018-07-27T01:03:00.011Z,125.6
2018-07-27T01:04:01.074Z,126.1
2018-07-27T01:05:02.314Z,126.1
2018-07-27T01:06:03.720Z,126.6
2018-07-27T01:07:04.935Z,126.6
2018-07-27T01:08:06.473Z,126.6
2018-07-27T01:09:07.872Z,126.6
2018-07-27T01:10:09.410Z,127.1
2018-07-27T01:11:10.783Z,127.1
2018-07-27T01:12:11.844Z,126.1
2018-07-27T01:13:13.205Z,127.1
2018-07-27T01:14:14.768Z,127.1
2018-07-27T01:15:16.321Z,126.6
2018-07-27T01:16:17.874Z,125.6
2018-07-27T01:17:19.255Z,126.1
2018-07-27T01:18:20.814Z,126.1
2018-07-27T01:19:22.047Z,126.1
2018-07-27T01:20:23.262Z,125.1
2018-07-27T01:21:24.649Z,125.6
2018-07-27T01:22:26.195Z,126.1
2018-07-27T01:23:27.554Z,126.1
2018-07-27T01:24:28.923Z,125.6
2018-07-27T01:25:30.475Z,125.6
2018-07-27T01:26:32.028Z,125.6
2018-07-27T01:27:33.404Z,126.1
2018-07-27T01:28:34.950Z,125.6
2018-07-27T01:29:36.155Z,126.6
2018-07-27T01:30:37.697Z,126.1
2018-07-27T01:31:39.251Z,125.6
2018-07-27T01:32:40.799Z,125.6
2018-07-27T01:33:42.331Z,126.1
2018-07-27T01:34:43.911Z,126.6
2018-07-27T01:35:45.121Z,126.1
2018-07-27T01:36:46.502Z,126.6
2018-07-27T01:37:48.048Z,126.6
2018-07-27T01:38:49.599Z,126.6
2018-07-27T01:39:51.001Z,126.6
2018-07-27T01:40:52.381Z,126.6
2018-07-27T01:41:53.924Z,126.6
2018-07-27T01:42:55.285Z,126.1
2018-07-27T01:43:56.845Z,126.6
2018-07-27T01:44:58.229Z,126.1
2018-07-27T01:45:59.447Z,126.6
2018-07-27T01:47:00.841Z,126.1
2018-07-27T01:48:02.064Z,125.6
2018-07-27T01:49:03.444Z,125.6
2018-07-27T01:50:04.820Z,126.1
2018-07-27T01:51:06.591Z,126.1
2018-07-27T01:52:08.404Z,125.6
2018-07-27T01:53:10.016Z,126.1
2018-07-27T01:54:11.578Z,126.1
2018-07-27T01:55:12.798Z,125.6
2018-07-27T01:56:14.339Z,125.1
2018-07-27T01:57:15.555Z,125.1
2018-07-27T01:58:16.958Z,125.6
2018-07-27T01:59:18.341Z,125.6
2018-07-27T02:00:19.910Z,125.6
2018-07-27T02:01:21.284Z,125.1
2018-07-27T02:02:22.666Z,125.1
2018-07-27T02:03:24.049Z,125.6
2018-07-27T02:04:25.435Z,125.1
2018-07-27T02:05:26.993Z,125.1
2018-07-27T02:06:28.544Z,125.6
2018-07-27T02:07:30.098Z,125.6
2018-07-27T02:08:31.315Z,126.6
2018-07-27T02:09:32.694Z,127.1
2018-07-27T02:10:34.072Z,127.1
2018-07-27T02:11:35.275Z,128.1
2018-07-27T02:12:36.813Z,128.1
2018-07-27T02:13:38.380Z,128.1
2018-07-27T02:14:39.773Z,128.1
2018-07-27T02:15:40.817Z,127.1
2018-07-27T02:16:42.195Z,127.1
2018-07-27T02:17:43.589Z,126.6
2018-07-27T02:18:45.134Z,126.6
2018-07-27T02:19:46.518Z,126.6
2018-07-27T02:20:47.885Z,126.6
2018-07-27T02:21:49.430Z,126.1
2018-07-27T02:22:50.821Z,127.1
2018-07-27T02:23:52.038Z,127.1
2018-07-27T02:24:53.618Z,127.1
2018-07-27T02:25:55.005Z,126.6
2018-07-27T02:26:56.535Z,126.6
2018-07-27T02:27:58.063Z,127.1
2018-07-27T02:28:59.458Z,127.6
2018-07-27T02:30:01.003Z,127.1
2018-07-27T02:31:02.391Z,126.1
2018-07-27T02:32:03.977Z,126.6
2018-07-27T02:33:05.526Z,127.6
2018-07-27T02:34:07.104Z,127.6
2018-07-27T02:35:08.485Z,127.1
2018-07-27T02:36:09.713Z,127.6
2018-07-27T02:37:11.113Z,127.1
2018-07-27T02:38:12.483Z,126.6
2018-07-27T02:39:13.712Z,127.1
2018-07-27T02:40:15.108Z,127.1
2018-07-27T02:41:16.706Z,127.1
2018-07-27T02:42:17.925Z,126.6
2018-07-27T02:43:19.323Z,127.6
2018-07-27T02:44:20.727Z,126.6
2018-07-27T02:45:22.281Z,126.6
2018-07-27T02:46:23.822Z,126.6
2018-07-27T02:47:25.208Z,126.6
2018-07-27T02:48:26.606Z,126.6
2018-07-27T02:49:28.164Z,126.1
2018-07-27T02:50:29.784Z,126.1
2018-07-27T02:51:31.848Z,126.1
2018-07-27T02:52:33.412Z,125.6
2018-07-27T02:53:34.629Z,125.6
2018-07-27T02:54:36.202Z,125.6
2018-07-27T02:55:37.569Z,126.1
2018-07-27T02:56:38.953Z,125.6
2018-07-27T02:57:40.357Z,126.1
2018-07-27T02:58:41.739Z,125.6
2018-07-27T02:59:43.280Z,126.1
2018-07-27T03:00:44.484Z,125.1
2018-07-27T03:01:46.068Z,125.1
2018-07-27T03:02:47.455Z,125.1
2018-07-27T03:03:48.850Z,125.1
2018-07-27T03:04:50.056Z,125.6
2018-07-27T03:05:51.441Z,125.1
2018-07-27T03:06:52.985Z,126.1
2018-07-27T03:07:54.529Z,126.1
2018-07-27T03:08:55.741Z,125.6
2018-07-27T03:09:57.127Z,125.1
2018-07-27T03:10:58.684Z,125.1
2018-07-27T03:12:00.236Z,125.1
2018-07-27T03:13:01.831Z,125.1
2018-07-27T03:14:03.042Z,125.6
2018-07-27T03:15:04.607Z,125.1
2018-07-27T03:16:06.143Z,125.6
2018-07-27T03:17:07.546Z,125.1
2018-07-27T03:18:08.956Z,125.6
2018-07-27T03:19:10.364Z,125.1
2018-07-27T03:20:11.751Z,125.1
2018-07-27T03:21:12.974Z,125.1
2018-07-27T03:22:14.362Z,125.1
2018-07-27T03:23:15.762Z,125.6
2018-07-27T03:24:17.154Z,125.6
2018-07-27T03:25:18.698Z,125.6
2018-07-27T03:26:20.254Z,126.1
2018-07-27T03:27:21.476Z,125.6
2018-07-27T03:28:23.035Z,126.1
2018-07-27T03:29:24.572Z,126.1
2018-07-27T03:30:25.795Z,125.6
2018-07-27T03:31:27.335Z,126.1
2018-07-27T03:32:28.692Z,126.1
2018-07-27T03:33:29.729Z,126.1
2018-07-27T03:34:31.097Z,126.1
2018-07-27T03:35:32.494Z,126.1
2018-07-27T03:36:34.041Z,126.6
2018-07-27T03:37:35.252Z,126.6
2018-07-27T03:38:36.798Z,126.1
2018-07-27T03:39:38.006Z,126.6
2018-07-27T03:40:39.213Z,125.6
2018-07-27T03:41:40.609Z,126.6
2018-07-27T03:42:42.152Z,126.6
2018-07-27T03:43:43.921Z,125.6
2018-07-27T03:44:45.670Z,125.6
2018-07-27T03:45:47.214Z,126.1
2018-07-27T03:46:48.420Z,126.6
2018-07-27T03:47:49.973Z,126.1
2018-07-27T03:48:51.357Z,126.1
2018-07-27T03:49:52.901Z,126.1
2018-07-27T03:50:54.456Z,126.6
2018-07-27T03:51:55.994Z,127.1
2018-07-27T03:52:57.532Z,126.6
2018-07-27T03:53:59.086Z,126.1
2018-07-27T03:55:00.474Z,126.1
2018-07-27T03:56:01.853Z,125.6
2018-07-27T03:57:03.231Z,126.1
2018-07-27T03:58:04.449Z,126.1
2018-07-27T03:59:05.816Z,125.1
2018-07-27T04:00:07.362Z,125.6
2018-07-27T04:01:08.905Z,126.1
2018-07-27T04:02:10.652Z,125.1
2018-07-27T04:03:12.346Z,125.6
2018-07-27T04:04:13.562Z,125.1
2018-07-27T04:05:15.114Z,125.1
2018-07-27T04:06:16.505Z,124.6
2018-07-27T04:07:18.204Z,125.1
2018-07-27T04:08:19.879Z,125.1
2018-07-27T04:09:21.418Z,125.1
2018-07-27T04:10:22.971Z,125.1
2018-07-27T04:11:24.586Z,123.7
2018-07-27T04:12:26.133Z,124.6
2018-07-27T04:13:27.375Z,124.6
2018-07-27T04:14:28.931Z,124.1
2018-07-27T04:15:30.304Z,124.1
2018-07-27T04:16:31.844Z,124.1
2018-07-27T04:17:33.243Z,124.1
2018-07-27T04:18:34.607Z,124.1
2018-07-27T04:19:36.145Z,124.6
2018-07-27T04:20:37.536Z,124.1
2018-07-27T04:21:38.749Z,124.6
2018-07-27T04:22:39.836Z,124.6
2018-07-27T04:23:41.400Z,124.6
2018-07-27T04:24:42.956Z,124.1
2018-07-27T04:25:44.333Z,123.7
2018-07-27T04:26:45.758Z,124.1
2018-07-27T04:27:47.311Z,124.6
2018-07-27T04:28:48.847Z,125.1
2018-07-27T04:29:50.417Z,124.6
2018-07-27T04:30:51.800Z,124.1
2018-07-27T04:31:53.207Z,124.1
2018-07-27T04:32:54.771Z,124.1
2018-07-27T04:33:56.176Z,124.6
2018-07-27T04:34:57.738Z,124.6
2018-07-27T04:35:58.966Z,124.6
2018-07-27T04:37:00.522Z,124.6
2018-07-27T04:38:02.067Z,124.6
2018-07-27T04:39:03.626Z,124.6
2018-07-27T04:40:05.176Z,124.6
2018-07-27T04:41:06.726Z,124.1
2018-07-27T04:42:08.266Z,124.1
2018-07-27T04:43:09.656Z,124.1
2018-07-27T04:44:11.042Z,124.1
2018-07-27T04:45:12.602Z,124.1
2018-07-27T04:46:13.805Z,124.1
2018-07-27T04:47:15.195Z,124.1
2018-07-27T04:48:16.745Z,124.1
2018-07-27T04:49:18.278Z,123.7
2018-07-27T04:50:19.946Z,124.1
2018-07-27T04:51:21.487Z,124.1
2018-07-27T04:52:22.878Z,124.1
2018-07-27T04:53:24.436Z,124.1
2018-07-27T04:54:25.679Z,123.7
2018-07-27T04:55:27.056Z,123.7
2018-07-27T04:56:28.845Z,124.1
2018-07-27T04:57:30.662Z,124.1
2018-07-27T04:58:32.252Z,124.1
2018-07-27T04:59:33.631Z,124.1
2018-07-27T05:00:35.009Z,124.1
2018-07-27T05:01:36.425Z,124.1
2018-07-27T05:02:37.813Z,123.2
2018-07-27T05:03:39.370Z,123.7
2018-07-27T05:04:41.237Z,124.6
2018-07-27T05:05:42.904Z,123.2
2018-07-27T05:06:44.453Z,124.1
2018-07-27T05:07:45.846Z,123.7
2018-07-27T05:08:47.389Z,124.1
2018-07-27T05:09:48.773Z,124.1
2018-07-27T05:10:49.988Z,124.1
2018-07-27T05:11:51.585Z,123.7
2018-07-27T05:12:53.238Z,123.7
2018-07-27T05:13:54.620Z,123.7
2018-07-27T05:14:56.168Z,123.7
2018-07-27T05:15:57.544Z,123.7
2018-07-27T05:16:59.086Z,124.1
2018-07-27T05:18:00.630Z,124.1
2018-07-27T05:19:02.195Z,124.1
2018-07-27T05:20:03.562Z,124.1
2018-07-27T05:21:04.959Z,123.7
2018-07-27T05:22:06.342Z,124.1
2018-07-27T05:23:07.882Z,124.1
2018-07-27T05:24:09.423Z,124.1
2018-07-27T05:25:11.021Z,123.7
2018-07-27T05:26:12.401Z,124.1
2018-07-27T05:27:13.980Z,123.7
2018-07-27T05:28:15.364Z,123.7
2018-07-27T05:29:16.763Z,123.7
2018-07-27T05:30:18.141Z,123.7
2018-07-27T05:31:19.721Z,123.2
2018-07-27T05:32:21.093Z,123.7
2018-07-27T05:33:22.474Z,124.1
2018-07-27T05:34:24.118Z,124.1
2018-07-27T05:35:25.813Z,124.1
2018-07-27T05:36:27.379Z,124.1
2018-07-27T05:37:28.424Z,124.1
2018-07-27T05:38:29.965Z,123.7
2018-07-27T05:39:31.348Z,123.7
2018-07-27T05:40:32.888Z,123.7
2018-07-27T05:41:34.437Z,124.1
2018-07-27T05:42:35.814Z,124.1
2018-07-27T05:43:37.194Z,123.2
2018-07-27T05:44:38.576Z,124.1
2018-07-27T05:45:39.949Z,124.1
2018-07-27T05:46:41.502Z,123.7
2018-07-27T05:47:43.060Z,124.1
2018-07-27T05:48:44.445Z,124.1
2018-07-27T05:49:45.980Z,123.7
2018-07-27T05:50:47.371Z,123.7
2018-07-27T05:51:48.894Z,123.7
2018-07-27T05:52:50.623Z,123.2
2018-07-27T05:53:52.491Z,123.7
2018-07-27T05:54:54.040Z,124.1
2018-07-27T05:55:55.610Z,123.7
2018-07-27T05:56:57.162Z,124.1
2018-07-27T05:57:58.745Z,123.7
2018-07-27T05:59:00.295Z,123.7
2018-07-27T06:00:01.698Z,124.1
2018-07-27T06:01:03.234Z,124.1
2018-07-27T06:02:04.843Z,123.7
2018-07-27T06:03:06.236Z,123.7
2018-07-27T06:04:07.619Z,123.7
2018-07-27T06:05:09.009Z,123.7
2018-07-27T06:06:10.564Z,123.2
2018-07-27T06:07:11.803Z,124.1
2018-07-27T06:08:13.364Z,124.1
2018-07-27T06:09:14.581Z,123.7
2018-07-27T06:10:16.125Z,123.7
2018-07-27T06:11:17.704Z,124.1
2018-07-27T06:12:19.222Z,123.7
2018-07-27T06:13:20.592Z,123.7
2018-07-27T06:14:22.181Z,123.7
2018-07-27T06:15:23.587Z,123.7
2018-07-27T06:16:24.822Z,123.7
2018-07-27T06:17:26.225Z,124.1
2018-07-27T06:18:27.783Z,124.1
2018-07-27T06:19:29.154Z,123.7
2018-07-27T06:20:30.711Z,124.1
2018-07-27T06:21:32.254Z,124.1
2018-07-27T06:22:33.796Z,123.7
2018-07-27T06:23:35.337Z,123.7
2018-07-27T06:24:36.734Z,124.1
2018-07-27T06:25:38.452Z,124.1
2018-07-27T06:26:40.191Z,124.1
2018-07-27T06:27:41.756Z,123.2
2018-07-27T06:28:43.130Z,123.7
2018-07-27T06:29:44.502Z,123.7
2018-07-27T06:30:46.035Z,124.1
2018-07-27T06:31:47.593Z,123.7
2018-07-27T06:32:49.159Z,123.7
2018-07-27T06:33:50.711Z,123.7
2018-07-27T06:34:51.935Z,123.7
2018-07-27T06:35:53.500Z,123.7
2018-07-27T06:36:55.062Z,124.1
2018-07-27T06:37:56.277Z,123.7
2018-07-27T06:38:57.824Z,124.1
2018-07-27T06:39:59.472Z,123.7
2018-07-27T06:41:01.036Z,123.7
2018-07-27T06:42:02.416Z,123.7
2018-07-27T06:43:03.795Z,123.7
2018-07-27T06:44:05.352Z,123.7
2018-07-27T06:45:07.134Z,123.7
2018-07-27T06:46:08.803Z,123.7
2018-07-27T06:47:10.194Z,123.2
2018-07-27T06:48:11.419Z,124.1
2018-07-27T06:49:12.986Z,123.2
2018-07-27T06:50:14.386Z,123.7
2018-07-27T06:51:15.950Z,123.7
2018-07-27T06:52:17.161Z,123.7
2018-07-27T06:53:18.781Z,123.7
2018-07-27T06:54:20.168Z,123.7
2018-07-27T06:55:21.726Z,123.7
2018-07-27T06:56:23.294Z,123.2
2018-07-27T06:57:24.844Z,124.1
2018-07-27T06:58:26.413Z,123.7
2018-07-27T06:59:27.958Z,124.1
2018-07-27T07:00:29.167Z,123.7
2018-07-27T07:01:30.715Z,123.7
2018-07-27T07:02:31.939Z,123.7
2018-07-27T07:03:33.272Z,123.2
2018-07-27T07:04:34.752Z,123.2
2018-07-27T07:05:36.152Z,123.7
2018-07-27T07:06:37.557Z,123.2
2018-07-27T07:07:38.957Z,123.7
2018-07-27T07:08:40.337Z,123.7
2018-07-27T07:09:41.718Z,123.2
2018-07-27T07:10:43.101Z,123.2
2018-07-27T07:11:44.364Z,123.7
2018-07-27T07:12:45.916Z,123.2
2018-07-27T07:13:47.316Z,123.7
2018-07-27T07:14:48.872Z,123.2
2018-07-27T07:15:50.257Z,123.7
2018-07-27T07:16:51.661Z,123.7
2018-07-27T07:17:53.038Z,123.7
2018-07-27T07:18:54.593Z,123.7
2018-07-27T07:19:55.956Z,123.7
2018-07-27T07:20:57.182Z,123.7
2018-07-27T07:21:58.560Z,123.2
2018-07-27T07:22:59.934Z,123.7
2018-07-27T07:24:01.347Z,124.1
2018-07-27T07:25:02.907Z,123.2
2018-07-27T07:26:06.883Z,123.2
2018-07-27T07:27:09.774Z,123.2
2018-07-27T07:28:11.003Z,123.2
2018-07-27T07:29:12.384Z,123.7
2018-07-27T07:30:13.773Z,123.7
2018-07-27T07:31:15.337Z,123.2
2018-07-27T07:32:16.895Z,123.7
2018-07-27T07:33:18.718Z,123.7
2018-07-27T07:34:20.297Z,123.2
2018-07-27T07:35:21.505Z,123.7
2018-07-27T07:36:22.883Z,123.2
2018-07-27T07:37:24.418Z,123.2
2018-07-27T07:38:25.975Z,123.2
2018-07-27T07:39:27.184Z,125.1
2018-07-27T07:40:28.567Z,122.7
2018-07-27T07:41:29.801Z,123.7
2018-07-27T07:42:31.342Z,123.2
2018-07-27T07:43:32.895Z,123.2
2018-07-27T07:44:34.277Z,123.7
2018-07-27T07:45:35.826Z,123.2
2018-07-27T07:46:37.389Z,123.2
2018-07-27T07:47:38.776Z,124.1
2018-07-27T07:48:40.143Z,123.7
2018-07-27T07:49:41.526Z,123.7
2018-07-27T07:50:42.935Z,123.7
2018-07-27T07:51:44.326Z,123.2
2018-07-27T07:52:45.887Z,123.2
2018-07-27T07:53:47.439Z,123.2
2018-07-27T07:54:48.997Z,123.2
2018-07-27T07:55:50.555Z,123.7
2018-07-27T07:56:51.965Z,123.2
2018-07-27T07:57:53.196Z,123.2
2018-07-27T07:58:54.747Z,123.7
2018-07-27T07:59:55.796Z,123.7
2018-07-27T08:00:57.176Z,123.2
2018-07-27T08:01:58.713Z,123.2
2018-07-27T08:03:00.090Z,123.7
2018-07-27T08:04:01.488Z,123.2
2018-07-27T08:05:02.876Z,123.2
2018-07-27T08:06:04.268Z,123.7
2018-07-27T08:07:05.828Z,123.7
2018-07-27T08:08:07.227Z,123.7
2018-07-27T08:09:08.782Z,123.7
2018-07-27T08:10:10.336Z,123.7
2018-07-27T08:11:12.179Z,123.7
2018-07-27T08:12:13.868Z,123.2
2018-07-27T08:13:15.407Z,123.2
2018-07-27T08:14:16.965Z,123.2
2018-07-27T08:15:18.336Z,123.2
2018-07-27T08:16:19.936Z,123.2
2018-07-27T08:17:21.844Z,123.2
2018-07-27T08:18:23.150Z,123.7
2018-07-27T08:19:24.703Z,123.7
2018-07-27T08:20:26.319Z,123.7
2018-07-27T08:21:27.747Z,123.7
2018-07-27T08:22:29.157Z,123.2
2018-07-27T08:23:30.724Z,123.2
2018-07-27T08:24:32.263Z,123.7
2018-07-27T08:25:33.333Z,123.2
2018-07-27T08:26:34.561Z,123.2
2018-07-27T08:27:35.944Z,123.7
2018-07-27T08:28:37.492Z,123.2
2018-07-27T08:29:38.920Z,123.2
2018-07-27T08:30:40.480Z,123.2
2018-07-27T08:31:41.865Z,122.7
2018-07-27T08:32:43.096Z,123.7
2018-07-27T08:33:44.493Z,123.7
2018-07-27T08:34:45.928Z,123.2
2018-07-27T08:35:47.474Z,123.2
2018-07-27T08:36:48.692Z,123.7
2018-07-27T08:37:50.254Z,123.7
2018-07-27T08:38:51.576Z,123.7
2018-07-27T08:39:53.015Z,123.2
2018-07-27T08:40:54.399Z,123.2
2018-07-27T08:41:55.964Z,123.7
2018-07-27T08:42:57.355Z,123.7
2018-07-27T08:43:58.730Z,123.7
2018-07-27T08:45:00.154Z,123.2
2018-07-27T08:46:01.695Z,123.7
2018-07-27T08:47:03.260Z,123.2
2018-07-27T08:48:04.817Z,123.2
2018-07-27T08:49:06.229Z,123.7
2018-07-27T08:50:07.614Z,123.2
2018-07-27T08:51:09.173Z,123.7
2018-07-27T08:52:10.714Z,123.2
2018-07-27T08:53:12.277Z,123.7
2018-07-27T08:54:13.655Z,123.2
2018-07-27T08:55:15.044Z,123.2
2018-07-27T08:56:16.555Z,123.2
2018-07-27T08:57:17.855Z,123.7
2018-07-27T08:58:19.068Z,123.2
2018-07-27T08:59:20.625Z,123.7
2018-07-27T09:00:22.016Z,123.2
2018-07-27T09:01:23.564Z,122.7
2018-07-27T09:02:24.782Z,123.2
2018-07-27T09:03:26.178Z,123.2
2018-07-27T09:04:27.568Z,122.7
2018-07-27T09:05:29.128Z,123.2
2018-07-27T09:06:30.356Z,122.7
2018-07-27T09:07:31.747Z,122.2
2018-07-27T09:08:32.977Z,122.2
2018-07-27T09:09:34.359Z,122.2
2018-07-27T09:10:35.729Z,122.7
2018-07-27T09:11:36.936Z,123.2
2018-07-27T09:12:38.320Z,123.7
2018-07-27T09:13:39.876Z,124.1
2018-07-27T09:14:41.258Z,122.7
2018-07-27T09:15:42.798Z,123.7
2018-07-27T09:16:44.175Z,123.7
2018-07-27T09:17:45.774Z,123.7
2018-07-27T09:18:47.554Z,123.2
2018-07-27T09:19:49.127Z,123.2
2018-07-27T09:20:50.676Z,123.2
2018-07-27T09:21:52.074Z,123.2
2018-07-27T09:22:53.456Z,123.7
2018-07-27T09:23:55.004Z,122.7
2018-07-27T09:24:57.910Z,123.2
2018-07-27T09:26:00.763Z,123.2
2018-07-27T09:27:02.317Z,123.7
2018-07-27T09:28:03.717Z,123.2
2018-07-27T09:29:05.266Z,123.2
2018-07-27T09:30:06.798Z,123.2
2018-07-27T09:31:08.340Z,123.2
2018-07-27T09:32:09.725Z,123.2
2018-07-27T09:33:10.944Z,122.2
2018-07-27T09:34:12.675Z,123.2
2018-07-27T09:35:14.372Z,123.2
2018-07-27T09:36:16.243Z,122.7
2018-07-27T09:37:17.789Z,123.2
2018-07-27T09:38:19.333Z,122.7
2018-07-27T09:39:20.896Z,123.2
2018-07-27T09:40:22.492Z,123.7
2018-07-27T09:41:24.086Z,123.2
2018-07-27T09:42:25.294Z,122.7
2018-07-27T09:43:26.526Z,122.7
2018-07-27T09:44:27.927Z,123.2
2018-07-27T09:45:29.516Z,123.2
2018-07-27T09:46:31.303Z,123.2
2018-07-27T09:47:32.963Z,122.7
2018-07-27T09:48:34.182Z,123.2
2018-07-27T09:49:35.561Z,122.7
2018-07-27T09:50:36.966Z,122.7
2018-07-27T09:51:38.783Z,122.7
2018-07-27T09:52:40.106Z,123.2
2018-07-27T09:53:41.589Z,122.7
2018-07-27T09:54:43.217Z,122.7
2018-07-27T09:55:44.587Z,123.2
2018-07-27T09:56:45.963Z,123.2
2018-07-27T09:57:47.716Z,122.7
2018-07-27T09:58:49.127Z,122.7
2018-07-27T09:59:50.509Z,122.7
2018-07-27T10:00:52.068Z,123.7
2018-07-27T10:01:53.626Z,123.2
2018-07-27T10:02:55.180Z,122.7
2018-07-27T10:03:56.752Z,122.7
2018-07-27T10:04:58.329Z,123.2
2018-07-27T10:05:59.718Z,122.7
2018-07-27T10:07:01.267Z,122.7
2018-07-27T10:08:02.649Z,123.2
2018-07-27T10:09:04.021Z,122.2
2018-07-27T10:10:05.427Z,122.7
2018-07-27T10:11:06.819Z,123.2
2018-07-27T10:12:08.414Z,123.2
2018-07-27T10:13:09.991Z,123.2
2018-07-27T10:14:11.555Z,122.7
2018-07-27T10:15:13.109Z,123.2
2018-07-27T10:16:14.653Z,122.7
2018-07-27T10:17:16.217Z,122.7
2018-07-27T10:18:17.756Z,122.7
2018-07-27T10:19:19.325Z,122.7
2018-07-27T10:20:20.711Z,123.2
2018-07-27T10:21:22.287Z,123.2
2018-07-27T10:22:23.675Z,122.2
2018-07-27T10:23:25.224Z,122.7
2018-07-27T10:24:26.791Z,122.7
2018-07-27T10:25:28.352Z,122.7
2018-07-27T10:26:29.746Z,122.7
2018-07-27T10:27:30.957Z,122.7
2018-07-27T10:28:32.505Z,122.7
2018-07-27T10:29:33.893Z,122.7
2018-07-27T10:30:35.438Z,122.7
2018-07-27T10:31:36.995Z,122.7
2018-07-27T10:32:38.390Z,122.2
2018-07-27T10:33:39.797Z,123.2
2018-07-27T10:34:41.355Z,122.2
2018-07-27T10:35:42.925Z,122.7
2018-07-27T10:36:44.487Z,122.7
2018-07-27T10:37:45.866Z,122.2
2018-07-27T10:38:47.599Z,122.2
2018-07-27T10:39:49.146Z,122.7
2018-07-27T10:40:50.524Z,122.2
2018-07-27T10:41:51.739Z,122.7
2018-07-27T10:42:53.294Z,122.7
2018-07-27T10:43:54.513Z,122.2
2018-07-27T10:44:56.168Z,122.7
2018-07-27T10:45:57.154Z,122.7
2018-07-27T10:46:58.702Z,123.2
2018-07-27T10:48:00.113Z,123.2
2018-07-27T10:49:01.341Z,122.2
2018-07-27T10:50:02.575Z,123.2
2018-07-27T10:51:04.125Z,122.7
2018-07-27T10:52:05.523Z,122.7
2018-07-27T10:53:06.905Z,123.2
2018-07-27T10:54:08.486Z,123.2
2018-07-27T10:55:09.889Z,122.7
2018-07-27T10:56:11.278Z,123.7
2018-07-27T10:57:12.519Z,122.7
2018-07-27T10:58:14.080Z,122.2
2018-07-27T10:59:15.479Z,122.7
2018-07-27T11:00:16.843Z,123.2
2018-07-27T11:01:18.243Z,123.2
2018-07-27T11:02:19.815Z,123.2
2018-07-27T11:03:21.488Z,123.2
2018-07-27T11:04:23.051Z,122.7
2018-07-27T11:05:24.595Z,122.7
2018-07-27T11:06:26.153Z,123.2
2018-07-27T11:07:27.550Z,123.2
2018-07-27T11:08:29.125Z,122.7
2018-07-27T11:09:30.684Z,123.2
2018-07-27T11:10:31.906Z,122.7
2018-07-27T11:11:33.464Z,122.7
2018-07-27T11:12:34.867Z,123.2
2018-07-27T11:13:36.430Z,123.2
2018-07-27T11:14:37.667Z,122.7
2018-07-27T11:15:39.231Z,123.2
2018-07-27T11:16:40.805Z,122.7
2018-07-27T11:17:42.644Z,123.2
2018-07-27T11:18:44.210Z,122.7
2018-07-27T11:19:45.593Z,123.2
2018-07-27T11:20:46.974Z,122.7
2018-07-27T11:21:48.346Z,122.7
2018-07-27T11:22:49.898Z,122.2
2018-07-27T11:23:51.450Z,122.2
2018-07-27T11:24:52.986Z,122.7
2018-07-27T11:25:54.366Z,122.7
2018-07-27T11:26:55.599Z,122.7
2018-07-27T11:27:57.193Z,123.2
2018-07-27T11:28:58.589Z,123.2
2018-07-27T11:30:00.160Z,122.7
2018-07-27T11:31:01.957Z,123.2
2018-07-27T11:32:03.766Z,122.7
2018-07-27T11:33:05.173Z,122.7
2018-07-27T11:34:06.756Z,122.7
2018-07-27T11:35:08.140Z,123.2
2018-07-27T11:36:09.735Z,123.2
2018-07-27T11:37:11.516Z,122.7
2018-07-27T11:38:13.188Z,123.7
2018-07-27T11:39:14.253Z,122.7
2018-07-27T11:40:15.493Z,123.2
2018-07-27T11:41:17.059Z,123.2
2018-07-27T11:42:18.678Z,123.2
2018-07-27T11:43:20.437Z,123.2
2018-07-27T11:44:21.969Z,123.2
2018-07-27T11:45:23.367Z,123.2
2018-07-27T11:46:24.758Z,122.7
2018-07-27T11:47:26.317Z,122.7
2018-07-27T11:48:27.870Z,123.2
2018-07-27T11:49:29.272Z,122.7
2018-07-27T11:50:30.480Z,123.2
2018-07-27T11:51:32.034Z,123.2
2018-07-27T11:52:33.411Z,123.2
2018-07-27T11:53:34.966Z,123.2
2018-07-27T11:54:36.526Z,123.7
2018-07-27T11:55:38.050Z,123.2
2018-07-27T11:56:39.273Z,123.2
2018-07-27T11:57:40.519Z,123.2
2018-07-27T11:58:41.899Z,123.7
2018-07-27T11:59:43.277Z,123.2
2018-07-27T12:00:44.515Z,123.2
2018-07-27T12:01:46.594Z,123.2
2018-07-27T12:02:47.985Z,122.7
2018-07-27T12:03:49.534Z,122.7
2018-07-27T12:04:51.093Z,122.7
2018-07-27T12:05:52.482Z,122.7
2018-07-27T12:06:54.048Z,122.7
2018-07-27T12:07:55.431Z,123.2
2018-07-27T12:08:56.983Z,123.7
2018-07-27T12:09:58.543Z,122.2
2018-07-27T12:11:00.101Z,122.2
2018-07-27T12:12:01.655Z,122.7
2018-07-27T12:13:03.218Z,122.7
2018-07-27T12:14:05.325Z,123.2
2018-07-27T12:15:08.342Z,123.2
2018-07-27T12:16:10.774Z,122.7
2018-07-27T12:17:12.154Z,122.2
2018-07-27T12:18:13.706Z,122.2
2018-07-27T12:19:15.270Z,123.2
2018-07-27T12:20:16.676Z,122.2
2018-07-27T12:21:18.783Z,123.2
2018-07-27T12:22:20.975Z,123.2
2018-07-27T12:23:22.548Z,123.2
2018-07-27T12:24:23.760Z,122.7
2018-07-27T12:25:24.805Z,123.2
2018-07-27T12:26:26.185Z,123.2
2018-07-27T12:27:27.561Z,122.7
2018-07-27T12:28:28.786Z,122.7
2018-07-27T12:29:30.170Z,122.7
2018-07-27T12:30:31.708Z,123.2
2018-07-27T12:31:33.272Z,122.2
2018-07-27T12:32:34.558Z,123.2
2018-07-27T12:33:36.085Z,123.2
2018-07-27T12:34:37.475Z,122.7
2018-07-27T12:35:38.855Z,122.2
2018-07-27T12:36:40.244Z,122.7
2018-07-27T12:37:41.459Z,122.2
2018-07-27T12:38:43.014Z,122.7
2018-07-27T12:39:44.386Z,122.7
2018-07-27T12:40:45.943Z,122.7
2018-07-27T12:41:47.169Z,122.7
2018-07-27T12:42:48.756Z,122.7
2018-07-27T12:43:49.983Z,122.7
2018-07-27T12:44:51.466Z,122.7
2018-07-27T12:45:53.118Z,123.2
2018-07-27T12:46:54.515Z,122.2
2018-07-27T12:47:56.076Z,122.2
2018-07-27T12:48:57.495Z,122.7
2018-07-27T12:49:59.034Z,122.2
2018-07-27T12:51:00.421Z,122.7
2018-07-27T12:52:01.821Z,122.2
2018-07-27T12:53:03.385Z,122.7
2018-07-27T12:54:04.945Z,122.7
2018-07-27T12:55:06.346Z,122.7
2018-07-27T12:56:07.741Z,122.7
2018-07-27T12:57:09.286Z,122.7
2018-07-27T12:58:10.501Z,122.7
2018-07-27T12:59:11.896Z,123.2
2018-07-27T13:00:13.456Z,122.2
2018-07-27T13:01:15.004Z,122.7
2018-07-27T13:02:16.231Z,122.7
2018-07-27T13:03:17.609Z,123.2
2018-07-27T13:04:19.147Z,123.2
2018-07-27T13:05:20.935Z,122.7
2018-07-27T13:06:22.435Z,122.2
2018-07-27T13:07:23.983Z,122.2
2018-07-27T13:08:25.541Z,122.2
2018-07-27T13:09:27.091Z,122.7
2018-07-27T13:10:28.657Z,122.2
2018-07-27T13:11:29.758Z,122.2